Crossville, TN (38555)

4:10 AM CST on January 26, 2015 (GMT -0600)
Crossville City Hall | Change Station
CLOSE
Current Station
Personal Weather Station
Location: Crossville, TN
Elevation: 1867 ft
Nearby Weather Stations
Active Advisory: Special Statement

Elev 1867 ft 35.95 °N, 85.03 °W | Updated 5 minutes ago

Rain
Rain
36.7 °F
Feels Like 34 °F
N
4.0
Wind Variable Wind from WNW
Gusts 14.0 mph

Today
High -- | Low -- °F
--% Chance of Precip.
Yesterday
High -- | Low -- °F
Precip. -- in
6:45 AM 5:00 PM
Waxing Crescent, 41% visible
Pressure 29.71 in
Visibility 5.0 miles
Clouds Mostly Cloudy 800 ft
Overcast 1200 ft
Windchill 34 °F
Dew Point 35 °F
Humidity 94%
Rainfall 0.23 in
Snow Depth Not available.
UV 0 out of 12
Pollen .30 out of 12
Air Quality Not available.
Flu Activity Not available.
METAR KCSV 260953Z AUTO 29008KT 5SM BR BKN008 OVC012 03/01 A2971 RMK AO2 RAB11E23UPB23E25 CIG 006V010 SLP060 P0000 T00280011

More Conditions Fewer Conditions

Pressure 29.71 in
Visibility 5.0 miles
Clouds Mostly Cloudy 800 ft
Overcast 1200 ft
Windchill 34 °F
Dew Point 35 °F
Humidity 94%
Rainfall 0.23 in
Snow Depth Not available.
UV 0 out of 12
Pollen .30 out of 12
Air Quality Not available.
Flu Activity Not available.
METAR KCSV 260953Z AUTO 29008KT 5SM BR BKN008 OVC012 03/01 A2971 RMK AO2 RAB11E23UPB23E25 CIG 006V010 SLP060 P0000 T00280011

More Conditions Fewer Conditions

10-Day Weather Forecast

Almanac

Astronomy

Jan. 26, 2015 Rise Set
Actual Time
Civil Twilight
Nautical Twilight
Astronomical Twilight
Moon
Length of Visible Light
Length of Day
Tomorrow will be .
, % of the Moon is Illuminated

Today's Extremes

State Highs State Lows

Community

WunderPhotos

Upload Photos

1,790,163 photos uploaded!

WunderBlogs® & News

Nearby

Air Quality

  Air Quality AQ Index Pollutant
Not available.

Snow Depth

Station Depth Elevation

Earthquake Activity

City Distance Mag. Time & Date
Minimum magnitude displayed is 2.5.

Coastal Water Temperatures

Place Temperature

Nearby Weather Stations